createdAt,value
2023-03-20T00:01:24.807Z,18.23
2023-03-20T00:03:51.506Z,21.58
2023-03-20T00:06:20.722Z,21.65
2023-03-20T00:08:50.103Z,21.08
2023-03-20T00:11:32.181Z,21.92
2023-03-20T00:14:13.520Z,21.30
2023-03-20T00:16:45.731Z,21.00
2023-03-20T00:19:26.172Z,22.42
2023-03-20T00:21:54.545Z,22.38
2023-03-20T00:24:22.050Z,25.65
2023-03-20T00:26:50.052Z,21.42
2023-03-20T00:29:28.597Z,20.77
2023-03-20T00:31:55.698Z,23.60
2023-03-20T00:34:25.431Z,19.65
2023-03-20T00:36:53.770Z,22.83
2023-03-20T00:39:20.613Z,16.75
2023-03-20T00:41:57.736Z,16.73
2023-03-20T00:44:30.340Z,16.42
2023-03-20T00:46:59.823Z,16.77
2023-03-20T00:49:29.082Z,16.73
2023-03-20T00:51:56.090Z,15.75
2023-03-20T00:54:22.640Z,18.17
2023-03-20T00:56:56.480Z,19.52
2023-03-20T00:59:26.045Z,17.48
2023-03-20T01:01:52.842Z,17.60
2023-03-20T01:04:20.802Z,16.23
2023-03-20T01:06:47.560Z,18.85
2023-03-20T01:09:14.130Z,17.20
2023-03-20T01:11:41.128Z,18.00
2023-03-20T01:14:14.319Z,15.60
2023-03-20T01:16:41.273Z,15.75
2023-03-20T01:19:10.782Z,17.50
2023-03-20T01:21:37.363Z,20.83
2023-03-20T01:24:04.067Z,20.67
2023-03-20T01:26:36.060Z,13.60
2023-03-20T01:29:04.151Z,16.48
2023-03-20T01:31:30.805Z,13.75
2023-03-20T01:33:57.289Z,14.05
2023-03-20T01:36:24.210Z,11.18
2023-03-20T01:38:55.811Z,14.50
2023-03-20T01:41:24.854Z,18.02
2023-03-20T01:43:51.914Z,14.93
2023-03-20T01:46:24.360Z,18.42
2023-03-20T01:48:50.888Z,15.88
2023-03-20T01:51:22.167Z,12.40
2023-03-20T01:53:57.326Z,16.30
2023-03-20T01:56:24.461Z,14.80
2023-03-20T01:59:24.832Z,13.10
2023-03-20T02:01:51.434Z,15.23
2023-03-20T02:04:20.150Z,15.27
2023-03-20T02:06:46.848Z,15.57
2023-03-20T02:09:13.405Z,15.75
2023-03-20T02:11:41.836Z,18.08
2023-03-20T02:14:09.407Z,16.52
2023-03-20T02:16:35.948Z,12.65
2023-03-20T02:19:02.758Z,15.02
2023-03-20T02:22:03.200Z,17.50
2023-03-20T02:24:51.025Z,14.20
2023-03-20T02:30:24.424Z,17.73
2023-03-20T02:33:21.744Z,16.10
2023-03-20T02:36:14.599Z,16.77
2023-03-20T02:38:48.156Z,15.43
2023-03-20T02:41:39.256Z,16.92
2023-03-20T02:44:12.517Z,17.67
2023-03-20T02:46:43.938Z,15.10
2023-03-20T02:49:38.882Z,16.92
2023-03-20T02:52:11.060Z,17.90
2023-03-20T02:55:08.431Z,18.13
2023-03-20T02:58:12.323Z,14.65
2023-03-20T03:00:45.239Z,14.50
2023-03-20T03:03:20.756Z,15.02
2023-03-20T03:05:52.748Z,18.52
2023-03-20T03:08:22.863Z,17.38
2023-03-20T03:13:22.888Z,17.95
2023-03-20T03:15:53.935Z,17.25
2023-03-20T03:18:24.966Z,18.38
2023-03-20T03:20:59.958Z,19.55
2023-03-20T03:23:34.118Z,14.32
2023-03-20T03:26:04.080Z,18.42
2023-03-20T03:28:50.725Z,19.70
2023-03-20T03:31:19.442Z,17.73
2023-03-20T03:33:49.743Z,21.13
2023-03-20T03:36:50.066Z,18.60
2023-03-20T03:39:40.804Z,22.27
2023-03-20T03:42:39.616Z,20.50
2023-03-20T03:45:22.504Z,22.35
2023-03-20T03:47:59.915Z,22.40
2023-03-20T03:50:32.008Z,23.75
2023-03-20T03:53:03.312Z,21.65
2023-03-20T03:55:36.573Z,20.13
2023-03-20T03:58:18.709Z,24.23
2023-03-20T04:00:48.112Z,20.27
2023-03-20T04:03:15.754Z,16.08
2023-03-20T04:05:45.866Z,23.42
2023-03-20T04:10:40.629Z,17.90
2023-03-20T04:13:07.148Z,21.10
2023-03-20T04:15:33.984Z,21.88
2023-03-20T04:18:00.680Z,19.02
2023-03-20T04:20:27.216Z,19.27
2023-03-20T04:22:53.744Z,22.13
2023-03-20T04:25:23.094Z,17.20
2023-03-20T04:27:49.651Z,16.70
2023-03-20T04:30:16.738Z,20.95
2023-03-20T04:32:43.243Z,19.15
2023-03-20T04:35:10.086Z,17.83
2023-03-20T04:37:36.623Z,17.27
2023-03-20T04:40:03.890Z,16.45
2023-03-20T04:42:30.476Z,17.27
2023-03-20T04:44:57.161Z,17.08
2023-03-20T04:47:23.694Z,19.83
2023-03-20T04:49:51.660Z,13.77
2023-03-20T04:52:18.187Z,17.38
2023-03-20T04:54:44.660Z,15.40
2023-03-20T04:57:13.194Z,18.00
2023-03-20T04:59:39.652Z,14.68
2023-03-20T05:02:06.123Z,16.23
2023-03-20T05:04:32.730Z,16.58
2023-03-20T05:06:59.274Z,20.52
2023-03-20T05:09:25.795Z,17.83
2023-03-20T05:11:52.264Z,17.58
2023-03-20T05:14:18.764Z,18.05
2023-03-20T05:16:45.336Z,16.25
2023-03-20T05:19:11.871Z,17.42
2023-03-20T05:21:38.389Z,17.80
2023-03-20T05:24:05.304Z,17.80
2023-03-20T05:26:31.775Z,15.45
2023-03-20T05:28:58.312Z,13.15
2023-03-20T05:31:24.873Z,13.68
2023-03-20T05:33:51.403Z,13.90
2023-03-20T05:36:18.070Z,17.55
2023-03-20T05:38:44.644Z,16.83
2023-03-20T05:41:11.175Z,17.67
2023-03-20T05:43:37.708Z,16.00
2023-03-20T05:46:04.372Z,14.05
2023-03-20T05:48:30.948Z,18.35
2023-03-20T05:50:57.476Z,13.55
2023-03-20T05:53:23.962Z,17.42
2023-03-20T05:55:50.506Z,15.18
2023-03-20T05:58:17.111Z,13.63
2023-03-20T06:00:43.649Z,12.30
2023-03-20T06:03:10.249Z,13.52
2023-03-20T06:05:37.146Z,14.18
2023-03-20T06:08:04.595Z,13.80
2023-03-20T06:10:31.335Z,13.57
2023-03-20T06:12:58.814Z,15.38
2023-03-20T06:15:25.352Z,12.25
2023-03-20T06:17:51.865Z,12.90
2023-03-20T06:20:19.102Z,12.80
2023-03-20T06:22:46.190Z,13.07
2023-03-20T06:25:12.928Z,12.82
2023-03-20T06:27:39.547Z,10.18
2023-03-20T06:30:06.657Z,11.63
2023-03-20T06:32:33.290Z,12.90
2023-03-20T06:34:59.842Z,13.30
2023-03-20T06:37:26.333Z,10.70
2023-03-20T06:39:52.885Z,12.38
2023-03-20T06:42:19.416Z,8.85
2023-03-20T06:44:45.885Z,9.90
2023-03-20T06:47:12.379Z,11.20
2023-03-20T06:49:38.844Z,9.57
2023-03-20T06:52:05.839Z,12.88
2023-03-20T06:54:32.355Z,9.40
2023-03-20T06:56:58.830Z,9.85
2023-03-20T06:59:27.522Z,9.85
2023-03-20T07:01:54.132Z,10.05
2023-03-20T07:04:20.974Z,8.57
2023-03-20T07:06:47.573Z,15.05
2023-03-20T07:09:14.174Z,11.15
2023-03-20T07:11:40.667Z,13.10
2023-03-20T07:14:07.170Z,14.23
2023-03-20T07:16:33.706Z,11.68
2023-03-20T07:19:00.296Z,11.27
2023-03-20T07:21:26.858Z,12.43
2023-03-20T07:23:53.727Z,11.15
2023-03-20T07:26:20.219Z,10.77
2023-03-20T07:28:46.680Z,11.23
2023-03-20T07:31:20.982Z,11.70
2023-03-20T07:33:47.792Z,11.73
2023-03-20T07:36:14.631Z,13.27
2023-03-20T07:38:41.102Z,13.60
2023-03-20T07:41:08.267Z,11.50
2023-03-20T07:43:34.790Z,11.32
2023-03-20T07:46:06.651Z,14.18
2023-03-20T07:48:33.527Z,12.32
2023-03-20T07:51:00.041Z,10.05
2023-03-20T07:53:26.546Z,10.60
2023-03-20T07:55:53.050Z,10.32
2023-03-20T07:58:19.798Z,10.65
2023-03-20T08:00:46.264Z,9.63
2023-03-20T08:03:12.953Z,12.85
2023-03-20T08:05:39.733Z,11.68
2023-03-20T08:08:06.517Z,13.25
2023-03-20T08:10:33.261Z,8.45
2023-03-20T08:12:59.775Z,13.73
2023-03-20T08:15:26.431Z,11.43
2023-03-20T08:17:52.962Z,13.32
2023-03-20T08:20:19.493Z,9.30
2023-03-20T08:22:45.972Z,10.95
2023-03-20T08:25:12.642Z,11.07
2023-03-20T08:27:39.161Z,11.63
2023-03-20T08:30:06.352Z,11.65
2023-03-20T08:32:32.948Z,12.90
2023-03-20T08:34:59.523Z,11.13
2023-03-20T08:37:26.112Z,9.80
2023-03-20T08:39:52.615Z,9.25
2023-03-20T08:42:19.411Z,8.65
2023-03-20T08:44:46.351Z,9.98
2023-03-20T08:47:12.834Z,10.27
2023-03-20T08:49:39.515Z,8.68
2023-03-20T08:52:06.050Z,7.47
2023-03-20T08:54:32.614Z,10.95
2023-03-20T08:56:59.214Z,6.78
2023-03-20T08:59:25.729Z,6.97
2023-03-20T09:01:52.294Z,13.07
2023-03-20T09:04:19.071Z,10.98
2023-03-20T09:06:45.599Z,6.53
2023-03-20T09:09:12.222Z,9.77
2023-03-20T09:11:38.718Z,9.40
2023-03-20T09:14:05.296Z,10.45
2023-03-20T09:16:32.059Z,8.07
2023-03-20T09:18:58.672Z,9.70
2023-03-20T09:21:25.264Z,7.65
2023-03-20T09:23:51.806Z,7.97
2023-03-20T09:26:18.445Z,9.35
2023-03-20T09:28:45.015Z,7.03
2023-03-20T09:31:11.623Z,8.93
2023-03-20T09:33:38.129Z,11.60
2023-03-20T09:36:04.994Z,7.75
2023-03-20T09:38:31.495Z,8.18
2023-03-20T09:41:00.998Z,8.20
2023-03-20T09:43:36.271Z,6.78
2023-03-20T09:46:05.920Z,6.50
2023-03-20T09:48:49.504Z,8.85
2023-03-20T09:51:21.846Z,7.97
2023-03-20T09:53:59.880Z,10.35
2023-03-20T09:56:29.737Z,7.32
2023-03-20T09:59:05.675Z,7.47
2023-03-20T10:01:47.672Z,6.85
2023-03-20T10:04:14.237Z,5.07
2023-03-20T10:06:40.860Z,11.15
2023-03-20T10:09:16.418Z,6.80
2023-03-20T10:12:05.550Z,6.45
2023-03-20T10:15:06.781Z,8.02
2023-03-20T10:17:53.219Z,5.95
2023-03-20T10:20:36.106Z,4.47
2023-03-20T10:23:21.731Z,9.65
2023-03-20T10:25:59.268Z,6.60
2023-03-20T10:28:31.630Z,6.03
2023-03-20T10:31:33.380Z,8.98
2023-03-20T10:34:23.336Z,6.43
2023-03-20T10:36:55.714Z,5.28
2023-03-20T10:39:38.240Z,6.05
2023-03-20T10:42:26.483Z,5.72
2023-03-20T10:45:05.897Z,6.47
2023-03-20T10:47:38.936Z,10.82
2023-03-20T10:50:16.766Z,8.25
2023-03-20T10:52:45.720Z,6.10
2023-03-20T10:55:26.591Z,5.50
2023-03-20T10:58:17.153Z,6.88
2023-03-20T11:00:43.688Z,7.47
2023-03-20T11:03:20.840Z,4.45
2023-03-20T11:06:08.294Z,5.35
2023-03-20T11:08:42.073Z,6.70
2023-03-20T11:11:09.926Z,4.78
2023-03-20T11:13:39.936Z,4.88
2023-03-20T11:18:41.088Z,6.53
2023-03-20T11:21:14.115Z,4.50
2023-03-20T11:23:40.776Z,7.28
2023-03-20T11:26:38.345Z,4.85
2023-03-20T11:29:32.120Z,7.43
2023-03-20T11:32:28.090Z,3.95
2023-03-20T11:34:55.523Z,4.93
2023-03-20T11:37:27.732Z,5.38
2023-03-20T11:40:14.925Z,7.00
2023-03-20T11:43:04.489Z,5.13
2023-03-20T11:45:40.276Z,5.03
2023-03-20T11:48:20.029Z,8.52
2023-03-20T11:50:56.313Z,5.07
2023-03-20T11:53:27.572Z,5.88
2023-03-20T11:56:06.199Z,8.15
2023-03-20T11:58:34.741Z,8.15
2023-03-20T12:01:02.846Z,3.47
2023-03-20T12:03:51.818Z,3.25
2023-03-20T12:06:37.151Z,7.47
2023-03-20T12:09:12.485Z,3.88
2023-03-20T12:11:48.139Z,4.78
2023-03-20T12:14:27.329Z,6.50
2023-03-20T12:17:05.641Z,4.90
2023-03-20T12:19:32.950Z,4.22
2023-03-20T12:22:22.761Z,4.70
2023-03-20T12:25:16.260Z,6.60
2023-03-20T12:27:56.503Z,7.13
2023-03-20T12:30:47.312Z,5.22
2023-03-20T12:33:26.320Z,5.38
2023-03-20T12:35:54.246Z,7.05
2023-03-20T12:38:27.553Z,4.97
2023-03-20T12:41:25.209Z,6.57
2023-03-20T12:44:10.339Z,5.65
2023-03-20T12:47:17.072Z,8.98
2023-03-20T12:50:04.325Z,9.40
2023-03-20T12:53:09.962Z,7.53
2023-03-20T12:55:52.722Z,6.25
2023-03-20T12:58:25.330Z,6.88
2023-03-20T13:01:02.360Z,3.83
2023-03-20T13:04:02.236Z,6.50
2023-03-20T13:06:50.460Z,7.05
2023-03-20T13:09:43.003Z,5.93
2023-03-20T13:12:17.082Z,5.50
2023-03-20T13:15:03.399Z,6.28
2023-03-20T13:17:42.073Z,6.05
2023-03-20T13:20:26.321Z,5.38
2023-03-20T13:23:10.352Z,6.57
2023-03-20T13:25:55.450Z,7.65
2023-03-20T13:28:48.944Z,3.47
2023-03-20T13:34:15.386Z,8.60
2023-03-20T13:37:24.703Z,8.48
2023-03-20T13:40:00.541Z,4.50
2023-03-20T13:45:04.942Z,5.60
2023-03-20T13:47:32.909Z,4.82
2023-03-20T13:50:24.047Z,9.88
2023-03-20T13:53:07.855Z,6.65
2023-03-20T13:56:02.373Z,4.65
2023-03-20T13:59:01.188Z,5.15
2023-03-20T14:01:33.705Z,7.53
2023-03-20T14:04:02.127Z,10.45
2023-03-20T14:06:31.489Z,7.43
2023-03-20T14:08:59.767Z,7.68
2023-03-20T14:11:30.714Z,5.53
2023-03-20T14:14:16.646Z,5.95
2023-03-20T14:16:43.349Z,5.60
2023-03-20T14:19:21.465Z,6.45
2023-03-20T14:21:50.632Z,6.22
2023-03-20T14:24:18.802Z,5.10
2023-03-20T14:26:50.503Z,6.85
2023-03-20T14:29:17.000Z,7.65
2023-03-20T14:31:47.720Z,7.22
2023-03-20T14:34:17.267Z,5.47
2023-03-20T14:36:58.519Z,4.60
2023-03-20T14:39:33.872Z,3.60
2023-03-20T14:42:29.589Z,10.52
2023-03-20T14:45:36.697Z,7.70
2023-03-20T14:48:29.602Z,5.82
2023-03-20T14:51:20.182Z,5.30
2023-03-20T14:53:57.911Z,6.20
2023-03-20T14:56:34.487Z,5.95
2023-03-20T14:59:10.248Z,5.13
2023-03-20T15:04:18.523Z,5.38
2023-03-20T15:06:53.844Z,5.68
2023-03-20T15:09:22.294Z,10.05
2023-03-20T15:11:49.105Z,7.53
2023-03-20T15:14:27.852Z,8.90
2023-03-20T15:17:03.505Z,4.30
2023-03-20T15:19:30.613Z,5.15
2023-03-20T15:21:57.146Z,6.15
2023-03-20T15:24:27.043Z,3.97
2023-03-20T15:29:25.941Z,5.82
2023-03-20T15:32:15.369Z,4.85
2023-03-20T15:34:42.832Z,5.47
2023-03-20T15:37:16.929Z,6.60
2023-03-20T15:39:50.306Z,4.28
2023-03-20T15:42:20.259Z,5.78
2023-03-20T15:44:48.677Z,9.20
2023-03-20T15:47:25.580Z,5.65
2023-03-20T15:49:57.587Z,7.35
2023-03-20T15:52:36.628Z,6.20
2023-03-20T15:55:40.845Z,7.10
2023-03-20T15:58:07.651Z,5.07
2023-03-20T16:00:39.484Z,4.45
2023-03-20T16:03:11.062Z,6.15
2023-03-20T16:05:37.582Z,5.55
2023-03-20T16:08:15.436Z,4.55
2023-03-20T16:10:43.491Z,5.55
2023-03-20T16:13:13.767Z,4.18
2023-03-20T16:15:40.953Z,5.70
2023-03-20T16:18:10.817Z,7.18
2023-03-20T16:20:41.598Z,7.53
2023-03-20T16:23:09.508Z,5.10
2023-03-20T16:25:37.403Z,5.25
2023-03-20T16:28:05.556Z,7.28
2023-03-20T16:30:32.797Z,6.53
2023-03-20T16:33:18.190Z,4.63
2023-03-20T16:35:48.285Z,5.90
2023-03-20T16:38:23.675Z,6.63
2023-03-20T16:40:54.147Z,6.13
2023-03-20T16:43:26.051Z,4.78
2023-03-20T16:45:55.036Z,7.07
2023-03-20T16:48:34.009Z,6.15
2023-03-20T16:51:26.288Z,7.43
2023-03-20T16:54:00.355Z,7.55
2023-03-20T16:56:37.658Z,10.82
2023-03-20T16:59:16.152Z,7.57
2023-03-20T17:01:45.402Z,7.50
2023-03-20T17:04:19.684Z,7.68
2023-03-20T17:06:49.881Z,5.22
2023-03-20T17:09:36.935Z,4.95
2023-03-20T17:12:14.877Z,6.55
2023-03-20T17:14:41.468Z,6.15
2023-03-20T17:17:18.234Z,5.18
2023-03-20T17:19:46.105Z,10.73
2023-03-20T17:22:19.221Z,6.10
2023-03-20T17:24:45.919Z,6.85
2023-03-20T17:27:13.629Z,8.55
2023-03-20T17:29:41.139Z,6.38
2023-03-20T17:32:12.773Z,4.68
2023-03-20T17:34:39.745Z,9.27
2023-03-20T17:37:11.366Z,5.60
2023-03-20T17:39:37.834Z,5.22
2023-03-20T17:42:17.404Z,9.80
2023-03-20T17:44:44.161Z,8.68
2023-03-20T17:47:19.551Z,8.45
2023-03-20T17:49:46.499Z,8.50
2023-03-20T17:52:15.324Z,6.93
2023-03-20T17:54:42.972Z,5.13
2023-03-20T17:57:37.942Z,11.77
2023-03-20T18:00:09.468Z,8.93
2023-03-20T18:02:36.082Z,8.45
2023-03-20T18:05:02.692Z,7.43
2023-03-20T18:07:29.300Z,9.60
2023-03-20T18:09:55.800Z,6.70
2023-03-20T18:12:22.273Z,6.90
2023-03-20T18:14:48.819Z,8.60
2023-03-20T18:17:15.959Z,7.50
2023-03-20T18:19:43.398Z,8.60
2023-03-20T18:22:10.642Z,7.70
2023-03-20T18:24:37.550Z,7.55
2023-03-20T18:27:05.034Z,6.88
2023-03-20T18:29:31.684Z,7.72
2023-03-20T18:31:58.199Z,6.45
2023-03-20T18:34:24.779Z,7.05
2023-03-20T18:36:51.374Z,11.63
2023-03-20T18:39:24.722Z,6.68
2023-03-20T18:41:51.494Z,13.25
2023-03-20T18:44:18.892Z,9.35
2023-03-20T18:46:48.342Z,8.13
2023-03-20T18:49:16.962Z,7.15
2023-03-20T18:51:44.493Z,7.50
2023-03-20T18:54:11.041Z,10.50
2023-03-20T18:56:37.634Z,6.95
2023-03-20T18:59:07.113Z,8.23
2023-03-20T19:01:34.440Z,6.57
2023-03-20T19:04:01.192Z,5.93
2023-03-20T19:06:27.892Z,8.70
2023-03-20T19:08:54.464Z,7.28
2023-03-20T19:11:21.791Z,6.18
2023-03-20T19:13:52.863Z,8.57
2023-03-20T19:16:23.715Z,9.52
2023-03-20T19:18:56.829Z,8.20
2023-03-20T19:21:23.414Z,8.07
2023-03-20T19:23:50.456Z,8.80
2023-03-20T19:26:19.167Z,10.75
2023-03-20T19:28:46.201Z,7.68
2023-03-20T19:31:13.323Z,8.75
2023-03-20T19:33:40.504Z,13.13
2023-03-20T19:36:19.543Z,13.02
2023-03-20T19:38:46.222Z,9.73
2023-03-20T19:41:12.893Z,11.23
2023-03-20T19:43:51.995Z,11.30
2023-03-20T19:46:36.272Z,7.25
2023-03-20T19:49:05.777Z,8.85
2023-03-20T19:51:32.414Z,6.60
2023-03-20T19:53:58.954Z,10.27
2023-03-20T19:56:25.504Z,9.40
2023-03-20T19:58:52.148Z,7.57
2023-03-20T20:01:24.778Z,7.88
2023-03-20T20:03:52.589Z,7.38
2023-03-20T20:06:22.210Z,7.97
2023-03-20T20:11:18.723Z,9.80
2023-03-20T20:14:15.600Z,11.00
2023-03-20T20:16:32.874Z,7.70
2023-03-20T20:18:59.539Z,7.00
2023-03-20T20:22:13.270Z,8.00
